createdAt,value
2022-10-11T00:01:02.183Z,100.00
2022-10-11T00:03:30.181Z,100.00
2022-10-11T00:05:58.038Z,100.00
2022-10-11T00:08:25.810Z,100.00
2022-10-11T00:11:02.987Z,100.00
2022-10-11T00:13:31.509Z,100.00
2022-10-11T00:15:59.329Z,100.00
2022-10-11T00:18:27.173Z,100.00
2022-10-11T00:21:04.460Z,100.00
2022-10-11T00:23:33.250Z,100.00
2022-10-11T00:26:05.920Z,100.00
2022-10-11T00:28:35.156Z,100.00
2022-10-11T00:31:11.255Z,100.00
2022-10-11T00:33:39.344Z,100.00
2022-10-11T00:36:09.054Z,100.00
2022-10-11T00:38:37.258Z,100.00
2022-10-11T00:41:05.315Z,100.00
2022-10-11T00:43:33.642Z,100.00
2022-10-11T00:46:06.050Z,100.00
2022-10-11T00:48:41.342Z,100.00
2022-10-11T00:51:44.400Z,100.00
2022-10-11T00:54:16.636Z,100.00
2022-10-11T00:56:49.955Z,100.00
2022-10-11T00:59:26.275Z,100.00
2022-10-11T01:02:07.619Z,100.00
2022-10-11T01:04:35.833Z,100.00
2022-10-11T01:07:03.846Z,100.00
2022-10-11T01:09:32.360Z,100.00
2022-10-11T01:12:04.011Z,100.00
2022-10-11T01:14:47.639Z,100.00
2022-10-11T01:17:44.128Z,100.00
2022-10-11T01:20:24.172Z,100.00
2022-10-11T01:23:48.586Z,100.00
2022-10-11T01:26:58.122Z,100.00
2022-10-11T01:29:56.215Z,100.00
2022-10-11T01:32:44.746Z,100.00
2022-10-11T01:35:29.022Z,100.00
2022-10-11T01:38:25.451Z,100.00
2022-10-11T01:41:06.939Z,100.00
2022-10-11T01:43:36.768Z,100.00
2022-10-11T01:47:20.300Z,100.00
2022-10-11T01:49:58.639Z,100.00
2022-10-11T01:52:30.925Z,100.00
2022-10-11T01:55:21.688Z,100.00
2022-10-11T01:57:58.267Z,100.00
2022-10-11T02:00:42.282Z,100.00
2022-10-11T02:03:33.090Z,100.00
2022-10-11T02:06:20.279Z,100.00
2022-10-11T02:09:23.261Z,100.00
2022-10-11T02:11:57.278Z,100.00
2022-10-11T02:14:32.031Z,100.00
2022-10-11T02:17:11.120Z,100.00
2022-10-11T02:19:45.842Z,100.00
2022-10-11T02:22:28.406Z,100.00
2022-10-11T02:25:00.898Z,100.00
2022-10-11T02:27:33.638Z,100.00
2022-10-11T02:30:06.047Z,100.00
2022-10-11T02:32:36.301Z,100.00
2022-10-11T02:35:05.007Z,100.00
2022-10-11T02:37:58.519Z,100.00
2022-10-11T02:40:33.762Z,100.00
2022-10-11T02:43:31.757Z,100.00
2022-10-11T02:46:01.831Z,100.00
2022-10-11T02:48:30.933Z,100.00
2022-10-11T02:50:59.492Z,100.00
2022-10-11T02:53:27.672Z,100.00
2022-10-11T02:55:56.370Z,100.00
2022-10-11T02:58:24.788Z,100.00
2022-10-11T03:00:53.049Z,100.00
2022-10-11T03:03:20.915Z,100.00
2022-10-11T03:05:49.268Z,100.00
2022-10-11T03:08:18.118Z,100.00
2022-10-11T03:10:46.090Z,100.00
2022-10-11T03:13:18.139Z,100.00
2022-10-11T03:16:02.934Z,100.00
2022-10-11T03:18:35.390Z,100.00
2022-10-11T03:21:03.893Z,100.00
2022-10-11T03:23:31.897Z,100.00
2022-10-11T03:25:59.935Z,100.00
2022-10-11T03:28:28.343Z,100.00
2022-10-11T03:30:56.304Z,100.00
2022-10-11T03:33:24.704Z,100.00
2022-10-11T03:35:52.608Z,100.00
2022-10-11T03:38:22.869Z,100.00
2022-10-11T03:40:51.070Z,100.00
2022-10-11T03:43:19.142Z,100.00
2022-10-11T03:45:47.220Z,100.00
2022-10-11T03:48:15.572Z,100.00
2022-10-11T03:50:43.562Z,100.00
2022-10-11T03:53:11.855Z,100.00
2022-10-11T03:55:40.508Z,100.00
2022-10-11T03:58:09.314Z,100.00
2022-10-11T04:00:38.032Z,100.00
2022-10-11T04:03:05.996Z,100.00
2022-10-11T04:05:33.943Z,100.00
2022-10-11T04:08:02.059Z,100.00
2022-10-11T04:10:31.560Z,100.00
2022-10-11T04:12:59.544Z,100.00
2022-10-11T04:15:27.491Z,100.00
2022-10-11T04:17:55.494Z,100.00
2022-10-11T04:20:23.964Z,100.00
2022-10-11T04:22:51.911Z,100.00
2022-10-11T04:25:20.100Z,100.00
2022-10-11T04:27:48.220Z,100.00
2022-10-11T04:30:16.956Z,100.00
2022-10-11T04:32:45.317Z,100.00
2022-10-11T04:35:13.489Z,100.00
2022-10-11T04:37:41.358Z,100.00
2022-10-11T04:40:10.359Z,100.00
2022-10-11T04:42:38.176Z,100.00
2022-10-11T04:45:06.918Z,100.00
2022-10-11T04:47:34.846Z,100.00
2022-10-11T04:50:02.853Z,100.00
2022-10-11T04:52:30.810Z,100.00
2022-10-11T04:54:58.822Z,100.00
2022-10-11T04:57:26.828Z,100.00
2022-10-11T04:59:54.720Z,100.00
2022-10-11T05:02:22.720Z,100.00
2022-10-11T05:04:51.235Z,100.00
2022-10-11T05:07:19.296Z,100.00
2022-10-11T05:09:47.271Z,100.00
2022-10-11T05:12:15.249Z,100.00
2022-10-11T05:14:43.213Z,100.00
2022-10-11T05:17:11.213Z,100.00
2022-10-11T05:19:39.117Z,100.00
2022-10-11T05:22:07.084Z,100.00
2022-10-11T05:24:35.019Z,100.00
2022-10-11T05:27:03.653Z,100.00
2022-10-11T05:29:31.778Z,100.00
2022-10-11T05:31:59.811Z,100.00
2022-10-11T05:34:27.837Z,100.00
2022-10-11T05:36:56.967Z,100.00
2022-10-11T05:39:25.000Z,100.00
2022-10-11T05:41:52.935Z,100.00
2022-10-11T05:44:20.867Z,100.00
2022-10-11T05:46:48.897Z,100.00
2022-10-11T05:49:16.844Z,100.00
2022-10-11T05:51:44.817Z,100.00
2022-10-11T05:54:12.768Z,100.00
2022-10-11T05:56:40.691Z,100.00
2022-10-11T05:59:08.701Z,100.00
2022-10-11T06:01:36.610Z,100.00
2022-10-11T06:04:05.122Z,100.00
2022-10-11T06:06:33.483Z,100.00
2022-10-11T06:09:01.437Z,100.00
2022-10-11T06:11:29.479Z,100.00
2022-10-11T06:13:58.248Z,100.00
2022-10-11T06:16:27.394Z,100.00
2022-10-11T06:18:57.471Z,100.00
2022-10-11T06:21:25.901Z,100.00
2022-10-11T06:23:59.920Z,100.00
2022-10-11T06:26:30.106Z,100.00
2022-10-11T06:28:59.176Z,100.00
2022-10-11T06:31:27.167Z,100.00
2022-10-11T06:33:55.188Z,100.00
2022-10-11T06:36:23.142Z,100.00
2022-10-11T06:38:55.261Z,100.00
2022-10-11T06:41:26.591Z,100.00
2022-10-11T06:43:54.821Z,100.00
2022-10-11T06:46:25.688Z,100.00
2022-10-11T06:48:54.487Z,100.00
2022-10-11T06:51:24.531Z,100.00
2022-10-11T06:53:56.576Z,100.00
2022-10-11T06:56:27.572Z,100.00
2022-10-11T06:58:57.979Z,100.00
2022-10-11T07:01:27.132Z,100.00
2022-10-11T07:03:57.628Z,100.00
2022-10-11T07:06:30.542Z,100.00
2022-10-11T07:09:00.970Z,100.00
2022-10-11T07:11:29.519Z,100.00
2022-10-11T07:14:01.357Z,100.00
2022-10-11T07:16:31.589Z,100.00
2022-10-11T07:19:01.837Z,100.00
2022-10-11T07:21:32.559Z,100.00
2022-10-11T07:24:01.598Z,100.00
2022-10-11T07:26:36.779Z,100.00
2022-10-11T07:29:09.227Z,100.00
2022-10-11T07:31:39.543Z,100.00
2022-10-11T07:34:08.381Z,100.00
2022-10-11T07:36:36.793Z,100.00
2022-10-11T07:39:07.697Z,100.00
2022-10-11T07:41:39.690Z,100.00
2022-10-11T07:44:10.089Z,100.00
2022-10-11T07:46:38.158Z,100.00
2022-10-11T07:49:06.742Z,100.00
2022-10-11T07:51:34.913Z,100.00
2022-10-11T07:54:07.299Z,100.00
2022-10-11T07:56:37.696Z,100.00
2022-10-11T07:59:06.788Z,100.00
2022-10-11T08:01:35.296Z,100.00
2022-10-11T08:04:03.716Z,100.00
2022-10-11T08:06:32.989Z,100.00
2022-10-11T08:09:01.706Z,100.00
2022-10-11T08:11:33.699Z,100.00
2022-10-11T08:14:04.503Z,100.00
2022-10-11T08:16:32.514Z,100.00
2022-10-11T08:19:01.457Z,100.00
2022-10-11T08:21:30.021Z,100.00
2022-10-11T08:23:58.187Z,100.00
2022-10-11T08:26:26.347Z,100.00
2022-10-11T08:28:54.636Z,100.00
2022-10-11T08:31:22.886Z,100.00
2022-10-11T08:33:50.859Z,100.00
2022-10-11T08:36:19.126Z,100.00
2022-10-11T08:38:47.025Z,100.00
2022-10-11T08:41:28.795Z,100.00
2022-10-11T08:44:04.141Z,100.00
2022-10-11T08:46:35.331Z,100.00
2022-10-11T08:49:05.722Z,100.00
2022-10-11T08:52:00.076Z,100.00
2022-10-11T08:54:45.608Z,100.00
2022-10-11T08:57:26.745Z,100.00
2022-10-11T09:00:00.044Z,100.00
2022-10-11T09:03:09.597Z,100.00
2022-10-11T09:06:31.729Z,100.00
2022-10-11T09:09:28.933Z,100.00
2022-10-11T09:12:38.408Z,100.00
2022-10-11T09:15:14.876Z,100.00
2022-10-11T09:18:21.497Z,100.00
2022-10-11T09:21:16.585Z,100.00
2022-10-11T09:24:09.984Z,100.00
2022-10-11T09:26:56.888Z,100.00
2022-10-11T09:30:04.912Z,100.00
2022-10-11T09:32:39.231Z,100.00
2022-10-11T09:35:20.331Z,100.00
2022-10-11T09:38:09.368Z,100.00
2022-10-11T09:41:14.175Z,100.00
2022-10-11T09:43:48.583Z,100.00
2022-10-11T09:46:41.427Z,100.00
2022-10-11T09:49:16.657Z,100.00
2022-10-11T09:51:53.819Z,100.00
2022-10-11T09:54:27.524Z,100.00
2022-10-11T09:56:55.531Z,100.00
2022-10-11T09:59:29.628Z,100.00
2022-10-11T10:02:19.798Z,100.00
2022-10-11T10:05:08.531Z,100.00
2022-10-11T10:07:40.937Z,100.00
2022-10-11T10:10:40.246Z,100.00
2022-10-11T10:13:28.875Z,100.00
2022-10-11T10:16:01.430Z,100.00
2022-10-11T10:18:57.487Z,100.00
2022-10-11T10:21:36.860Z,100.00
2022-10-11T10:24:27.939Z,99.93
2022-10-11T10:27:24.689Z,99.00
2022-10-11T10:30:16.090Z,100.00
2022-10-11T10:32:56.472Z,99.42
2022-10-11T10:36:15.403Z,99.26
2022-10-11T10:39:05.276Z,98.29
2022-10-11T10:41:33.732Z,97.34
2022-10-11T10:44:02.163Z,97.30
2022-10-11T10:47:03.969Z,96.92
2022-10-11T10:50:19.373Z,98.30
2022-10-11T10:52:50.552Z,94.45
2022-10-11T10:55:34.988Z,93.47
2022-10-11T10:58:27.730Z,95.04
2022-10-11T11:01:27.790Z,95.07
2022-10-11T11:04:32.632Z,95.93
2022-10-11T11:07:21.099Z,93.19
2022-10-11T11:10:25.857Z,92.63
2022-10-11T11:13:19.001Z,90.71
2022-10-11T11:16:04.542Z,88.10
2022-10-11T11:18:40.086Z,88.94
2022-10-11T11:21:28.276Z,89.70
2022-10-11T11:24:41.402Z,90.41
2022-10-11T11:27:16.072Z,89.41
2022-10-11T11:30:03.123Z,88.97
2022-10-11T11:32:56.680Z,91.03
2022-10-11T11:36:05.863Z,87.97
2022-10-11T11:38:46.892Z,86.51
2022-10-11T11:41:27.924Z,87.56
2022-10-11T11:44:30.248Z,86.34
2022-10-11T11:47:35.293Z,87.05
2022-10-11T11:50:22.876Z,85.95
2022-10-11T11:53:00.263Z,84.04
2022-10-11T11:55:54.799Z,83.47
2022-10-11T11:58:53.562Z,85.21
2022-10-11T12:01:43.129Z,84.47
2022-10-11T12:04:33.662Z,84.12
2022-10-11T12:07:17.629Z,83.57
2022-10-11T12:09:54.619Z,85.35
2022-10-11T12:12:34.139Z,84.04
2022-10-11T12:15:25.893Z,81.62
2022-10-11T12:17:56.680Z,81.65
2022-10-11T12:20:33.657Z,80.19
2022-10-11T12:23:31.344Z,83.96
2022-10-11T12:26:56.293Z,82.73
2022-10-11T12:29:54.048Z,81.39
2022-10-11T12:32:28.242Z,81.67
2022-10-11T12:35:33.548Z,80.73
2022-10-11T12:38:34.081Z,81.20
2022-10-11T12:42:00.573Z,79.69
2022-10-11T12:44:29.851Z,80.95
2022-10-11T12:46:58.057Z,79.89
2022-10-11T12:49:50.555Z,79.82
2022-10-11T12:52:18.428Z,80.88
2022-10-11T12:55:23.099Z,79.73
2022-10-11T12:58:15.595Z,78.40
2022-10-11T13:01:03.432Z,77.41
2022-10-11T13:04:19.086Z,76.64
2022-10-11T13:07:06.590Z,76.74
2022-10-11T13:09:46.630Z,77.38
2022-10-11T13:12:21.428Z,76.05
2022-10-11T13:15:07.594Z,77.51
2022-10-11T13:17:39.019Z,77.30
2022-10-11T13:20:22.177Z,75.93
2022-10-11T13:22:54.242Z,75.18
2022-10-11T13:25:27.195Z,74.88
2022-10-11T13:27:59.614Z,77.57
2022-10-11T13:30:32.295Z,77.37
2022-10-11T13:33:01.431Z,75.41
2022-10-11T13:35:36.406Z,74.70
2022-10-11T13:38:08.036Z,75.50
2022-10-11T13:40:37.738Z,75.11
2022-10-11T13:43:06.193Z,73.94
2022-10-11T13:45:37.045Z,74.37
2022-10-11T13:48:14.387Z,71.18
2022-10-11T13:50:46.442Z,73.58
2022-10-11T13:53:14.298Z,71.19
2022-10-11T13:55:42.100Z,73.82
2022-10-11T13:58:28.874Z,71.24
2022-10-11T14:01:05.983Z,74.17
2022-10-11T14:03:47.444Z,78.16
2022-10-11T14:06:15.663Z,75.62
2022-10-11T14:08:47.404Z,76.15
2022-10-11T14:11:16.013Z,73.46
2022-10-11T14:13:50.358Z,72.13
2022-10-11T14:16:21.103Z,73.47
2022-10-11T14:19:12.510Z,76.25
2022-10-11T14:21:46.245Z,73.33
2022-10-11T14:24:16.458Z,72.34
2022-10-11T14:26:54.432Z,71.89
2022-10-11T14:29:27.651Z,75.47
2022-10-11T14:32:04.323Z,76.87
2022-10-11T14:34:33.159Z,76.59
2022-10-11T14:37:01.200Z,76.83
2022-10-11T14:39:32.345Z,76.29
2022-10-11T14:42:00.436Z,77.49
2022-10-11T14:44:28.674Z,76.58
2022-10-11T14:46:56.677Z,76.69
2022-10-11T14:49:29.499Z,75.85
2022-10-11T14:51:59.039Z,76.21
2022-10-11T14:54:29.007Z,77.04
2022-10-11T14:57:00.828Z,75.08
2022-10-11T14:59:34.689Z,74.16
2022-10-11T15:02:06.706Z,75.39
2022-10-11T15:04:34.880Z,74.80
2022-10-11T15:07:04.051Z,76.18
2022-10-11T15:09:32.130Z,77.10
2022-10-11T15:12:00.110Z,76.48
2022-10-11T15:14:28.312Z,77.99
2022-10-11T15:16:56.468Z,76.67
2022-10-11T15:19:25.735Z,76.34
2022-10-11T15:21:53.945Z,78.31
2022-10-11T15:24:22.070Z,77.83
2022-10-11T15:26:50.544Z,77.04
2022-10-11T15:29:18.563Z,78.63
2022-10-11T15:31:46.891Z,79.93
2022-10-11T15:34:14.859Z,79.47
2022-10-11T15:36:43.165Z,79.44
2022-10-11T15:39:33.963Z,79.36
2022-10-11T15:42:01.938Z,78.32
2022-10-11T15:44:29.857Z,78.96
2022-10-11T15:46:59.102Z,80.81
2022-10-11T15:49:26.980Z,82.16
2022-10-11T15:51:54.918Z,81.66
2022-10-11T15:54:22.937Z,81.52
2022-10-11T15:56:51.065Z,83.70
2022-10-11T15:59:19.020Z,83.52
2022-10-11T16:01:47.098Z,85.21
2022-10-11T16:04:15.093Z,87.43
2022-10-11T16:06:43.031Z,86.70
2022-10-11T16:09:11.028Z,86.00
2022-10-11T16:11:38.920Z,88.36
2022-10-11T16:14:06.829Z,87.76
2022-10-11T16:16:34.836Z,86.38
2022-10-11T16:19:02.990Z,88.55
2022-10-11T16:21:31.083Z,88.53
2022-10-11T16:23:58.987Z,90.06
2022-10-11T16:26:27.179Z,89.55
2022-10-11T16:28:56.739Z,90.72
2022-10-11T16:31:24.757Z,89.61
2022-10-11T16:33:53.194Z,88.87
2022-10-11T16:36:32.616Z,89.95
2022-10-11T16:39:04.801Z,89.29
2022-10-11T16:41:32.884Z,90.80
2022-10-11T16:44:24.048Z,93.23
2022-10-11T16:47:08.838Z,94.06
2022-10-11T16:49:49.444Z,94.52
2022-10-11T16:52:43.868Z,95.49
2022-10-11T16:55:24.490Z,96.59
2022-10-11T16:57:53.848Z,97.37
2022-10-11T17:00:39.779Z,98.16
2022-10-11T17:03:08.577Z,97.93
2022-10-11T17:05:37.164Z,98.46
2022-10-11T17:08:19.321Z,99.49
2022-10-11T17:11:01.169Z,99.78
2022-10-11T17:13:36.475Z,100.00
2022-10-11T17:16:28.045Z,100.00
2022-10-11T17:18:56.599Z,99.90
2022-10-11T17:21:34.824Z,99.81
2022-10-11T17:24:06.591Z,100.00
2022-10-11T17:26:54.603Z,100.00
2022-10-11T17:29:24.191Z,100.00
2022-10-11T17:32:04.981Z,100.00
2022-10-11T17:35:02.247Z,100.00
2022-10-11T17:37:33.623Z,100.00
2022-10-11T17:40:02.252Z,100.00
2022-10-11T17:42:33.343Z,100.00
2022-10-11T17:45:17.067Z,100.00
2022-10-11T17:47:49.030Z,100.00
2022-10-11T17:50:19.097Z,100.00
2022-10-11T17:52:51.406Z,100.00
2022-10-11T17:55:20.923Z,100.00
2022-10-11T17:57:50.240Z,100.00
2022-10-11T18:00:19.849Z,100.00
2022-10-11T18:02:49.133Z,100.00
2022-10-11T18:05:21.556Z,100.00
2022-10-11T18:07:53.812Z,100.00
2022-10-11T18:10:28.842Z,100.00
2022-10-11T18:13:06.480Z,100.00
2022-10-11T18:16:02.178Z,100.00
2022-10-11T18:18:43.706Z,99.77
2022-10-11T18:21:16.409Z,100.00
2022-10-11T18:23:48.344Z,100.00
2022-10-11T18:26:31.410Z,100.00
2022-10-11T18:29:03.392Z,99.77
2022-10-11T18:31:35.736Z,98.69
2022-10-11T18:34:05.913Z,99.02
2022-10-11T18:36:40.616Z,99.89
2022-10-11T18:39:22.591Z,99.27
2022-10-11T18:41:54.677Z,99.62
2022-10-11T18:44:26.119Z,99.22
2022-10-11T18:46:58.768Z,99.33
2022-10-11T18:49:26.878Z,98.77
2022-10-11T18:51:57.642Z,98.55
2022-10-11T18:54:25.503Z,98.13
2022-10-11T18:56:55.751Z,98.80
2022-10-11T18:59:23.970Z,99.44
2022-10-11T19:01:52.599Z,99.18
2022-10-11T19:04:20.958Z,100.00
2022-10-11T19:06:50.581Z,100.00
2022-10-11T19:09:22.538Z,100.00
2022-10-11T19:11:53.593Z,100.00
2022-10-11T19:14:31.603Z,99.85
2022-10-11T19:17:37.931Z,98.31
2022-10-11T19:20:06.814Z,99.37
2022-10-11T19:22:34.750Z,99.73
2022-10-11T19:25:02.818Z,98.83
2022-10-11T19:27:30.775Z,99.47
2022-10-11T19:29:58.993Z,100.00
2022-10-11T19:32:27.083Z,99.50
2022-10-11T19:34:54.950Z,100.00
2022-10-11T19:37:23.944Z,99.62
2022-10-11T19:39:52.046Z,98.02
2022-10-11T19:42:20.226Z,99.12
2022-10-11T19:44:48.232Z,97.95
2022-10-11T19:47:16.551Z,97.96
2022-10-11T19:49:45.612Z,97.46
2022-10-11T19:52:13.835Z,97.76
2022-10-11T19:54:41.759Z,98.66
2022-10-11T19:57:09.659Z,98.29
2022-10-11T19:59:37.771Z,96.77
2022-10-11T20:02:05.827Z,97.21
2022-10-11T20:04:51.710Z,97.00
2022-10-11T20:07:21.165Z,96.58
2022-10-11T20:09:49.116Z,96.71
2022-10-11T20:12:17.152Z,96.70
2022-10-11T20:14:45.127Z,95.71
2022-10-11T20:17:13.154Z,96.54
2022-10-11T20:19:41.174Z,96.60
2022-10-11T20:22:09.169Z,96.53
2022-10-11T20:24:37.301Z,95.44
2022-10-11T20:27:06.680Z,94.80
2022-10-11T20:29:34.990Z,95.56
2022-10-11T20:32:03.085Z,95.61
2022-10-11T20:34:31.195Z,94.52
2022-10-11T20:36:59.293Z,93.67
2022-10-11T20:39:27.631Z,93.86
2022-10-11T20:41:55.962Z,94.37
2022-10-11T20:44:24.278Z,93.73
2022-10-11T20:46:52.298Z,93.43
2022-10-11T20:49:20.807Z,93.43
2022-10-11T20:51:49.768Z,92.83
2022-10-11T20:54:17.910Z,93.04
2022-10-11T20:56:45.963Z,92.46
2022-10-11T20:59:13.990Z,93.49
2022-10-11T21:01:43.440Z,93.40
2022-10-11T21:04:19.122Z,93.46
2022-10-11T21:06:48.674Z,92.47
2022-10-11T21:09:17.377Z,91.30
2022-10-11T21:11:46.123Z,90.79
2022-10-11T21:14:14.127Z,90.90
2022-10-11T21:16:42.347Z,91.33
2022-10-11T21:19:14.805Z,91.07
2022-10-11T21:21:43.671Z,92.04
2022-10-11T21:24:11.824Z,92.31
2022-10-11T21:26:40.244Z,92.99
2022-10-11T21:29:08.602Z,92.95
2022-10-11T21:31:37.124Z,93.56
2022-10-11T21:34:06.820Z,93.81
2022-10-11T21:36:35.156Z,94.96
2022-10-11T21:39:03.854Z,94.86
2022-10-11T21:41:31.866Z,94.86
2022-10-11T21:44:00.028Z,94.99
2022-10-11T21:49:19.967Z,95.87
2022-10-11T21:51:48.001Z,95.51
2022-10-11T21:54:16.329Z,95.90
2022-10-11T21:56:44.349Z,96.37
2022-10-11T21:59:12.739Z,96.71
2022-10-11T22:01:42.095Z,97.42
2022-10-11T22:04:11.652Z,99.15
2022-10-11T22:06:39.752Z,99.23
2022-10-11T22:09:08.896Z,99.84
2022-10-11T22:11:37.476Z,99.57
2022-10-11T22:14:05.579Z,100.00
2022-10-11T22:16:35.066Z,100.00
2022-10-11T22:19:03.231Z,99.62
2022-10-11T22:21:31.257Z,99.38
2022-10-11T22:23:59.655Z,100.00
2022-10-11T22:26:31.026Z,100.00
2022-10-11T22:29:00.512Z,100.00
2022-10-11T22:31:29.661Z,100.00
2022-10-11T22:34:00.248Z,100.00
2022-10-11T22:36:30.756Z,100.00
2022-10-11T22:38:59.146Z,100.00
2022-10-11T22:41:27.247Z,100.00
2022-10-11T22:43:55.190Z,100.00
2022-10-11T22:46:23.227Z,100.00
2022-10-11T22:48:51.231Z,100.00
2022-10-11T22:51:19.458Z,100.00
2022-10-11T22:53:47.412Z,100.00
2022-10-11T22:56:15.498Z,100.00
2022-10-11T22:58:43.559Z,100.00
2022-10-11T23:01:15.127Z,100.00
2022-10-11T23:03:43.624Z,100.00
2022-10-11T23:06:11.674Z,100.00
2022-10-11T23:08:39.699Z,100.00
2022-10-11T23:11:08.519Z,100.00
2022-10-11T23:13:37.015Z,100.00
2022-10-11T23:16:10.884Z,100.00
2022-10-11T23:18:39.255Z,100.00
2022-10-11T23:21:08.692Z,100.00
2022-10-11T23:23:37.149Z,100.00
2022-10-11T23:26:11.881Z,100.00
2022-10-11T23:28:40.205Z,100.00
2022-10-11T23:31:12.346Z,100.00
2022-10-11T23:33:40.647Z,100.00
2022-10-11T23:36:15.401Z,100.00
2022-10-11T23:38:44.832Z,100.00
2022-10-11T23:41:13.497Z,100.00
2022-10-11T23:43:41.934Z,100.00
2022-10-11T23:46:09.941Z,100.00
2022-10-11T23:48:37.904Z,100.00
2022-10-11T23:51:06.241Z,100.00
2022-10-11T23:53:36.725Z,100.00
2022-10-11T23:56:06.212Z,100.00
2022-10-11T23:58:34.359Z,100.00
